createdAt,value
2022-09-04T00:01:27.414Z,18.62
2022-09-04T00:04:03.266Z,18.59
2022-09-04T00:06:35.439Z,18.64
2022-09-04T00:09:22.952Z,18.52
2022-09-04T00:12:10.732Z,18.51
2022-09-04T00:14:46.052Z,18.49
2022-09-04T00:17:23.797Z,18.45
2022-09-04T00:19:56.444Z,18.58
2022-09-04T00:22:29.917Z,18.55
2022-09-04T00:25:08.204Z,18.51
2022-09-04T00:27:44.437Z,18.43
2022-09-04T00:30:20.476Z,18.39
2022-09-04T00:32:53.292Z,18.41
2022-09-04T00:35:23.070Z,18.38
2022-09-04T00:37:59.190Z,18.37
2022-09-04T00:40:33.367Z,18.27
2022-09-04T00:43:24.928Z,18.33
2022-09-04T00:46:23.808Z,18.31
2022-09-04T00:48:59.842Z,18.40
2022-09-04T00:51:48.446Z,18.39
2022-09-04T00:54:40.310Z,18.37
2022-09-04T00:57:25.863Z,18.19
2022-09-04T01:00:13.200Z,18.26
2022-09-04T01:03:01.635Z,18.36
2022-09-04T01:05:56.728Z,18.24
2022-09-04T01:08:42.529Z,18.33
2022-09-04T01:11:17.464Z,18.03
2022-09-04T01:14:23.236Z,18.18
2022-09-04T01:16:55.638Z,18.11
2022-09-04T01:19:44.210Z,18.15
2022-09-04T01:22:16.319Z,18.19
2022-09-04T01:24:43.022Z,18.18
2022-09-04T01:27:15.779Z,18.13
2022-09-04T01:30:07.204Z,18.08
2022-09-04T01:32:52.374Z,18.13
2022-09-04T01:35:56.643Z,18.19
2022-09-04T01:38:40.701Z,18.21
2022-09-04T01:41:48.481Z,18.00
2022-09-04T01:44:15.294Z,18.08
2022-09-04T01:47:03.795Z,17.99
2022-09-04T01:49:37.399Z,18.04
2022-09-04T01:52:18.217Z,18.03
2022-09-04T01:54:58.487Z,17.95
2022-09-04T01:57:47.307Z,17.66
2022-09-04T02:00:20.159Z,17.84
2022-09-04T02:03:19.185Z,17.83
2022-09-04T02:06:17.105Z,17.75
2022-09-04T02:09:10.998Z,17.76
2022-09-04T02:11:40.543Z,17.88
2022-09-04T02:14:38.567Z,17.82
2022-09-04T02:17:11.759Z,17.62
2022-09-04T02:20:12.483Z,17.62
2022-09-04T02:22:54.416Z,17.65
2022-09-04T02:25:25.968Z,17.64
2022-09-04T02:28:38.707Z,17.68
2022-09-04T02:31:29.822Z,17.73
2022-09-04T02:34:15.183Z,17.66
2022-09-04T02:36:44.107Z,17.65
2022-09-04T02:39:22.639Z,17.56
2022-09-04T02:41:59.196Z,17.53
2022-09-04T02:44:45.257Z,17.64
2022-09-04T02:47:31.009Z,17.68
2022-09-04T02:50:10.246Z,17.53
2022-09-04T02:53:03.323Z,17.55
2022-09-04T02:55:53.030Z,17.44
2022-09-04T02:58:39.896Z,17.57
2022-09-04T03:01:37.163Z,17.63
2022-09-04T03:04:32.102Z,17.56
2022-09-04T03:07:10.098Z,17.59
2022-09-04T03:09:43.877Z,17.62
2022-09-04T03:12:26.651Z,17.72
2022-09-04T03:15:01.335Z,17.61
2022-09-04T03:17:34.553Z,17.59
2022-09-04T03:20:16.716Z,17.58
2022-09-04T03:23:08.439Z,17.50
2022-09-04T03:25:57.627Z,17.53
2022-09-04T03:28:46.020Z,17.44
2022-09-04T03:31:27.268Z,17.49
2022-09-04T03:34:03.209Z,17.55
2022-09-04T03:36:40.431Z,17.49
2022-09-04T03:39:35.130Z,17.40
2022-09-04T03:42:15.353Z,17.32
2022-09-04T03:45:11.954Z,17.45
2022-09-04T03:47:42.590Z,17.45
2022-09-04T03:50:27.970Z,17.53
2022-09-04T03:53:06.020Z,17.57
2022-09-04T03:56:01.102Z,17.56
2022-09-04T03:58:48.129Z,17.47
2022-09-04T04:01:27.089Z,17.54
2022-09-04T04:03:58.570Z,17.59
2022-09-04T04:06:28.292Z,17.53
2022-09-04T04:09:12.044Z,17.49
2022-09-04T04:11:43.226Z,17.44
2022-09-04T04:14:38.466Z,17.44
2022-09-04T04:17:20.711Z,17.34
2022-09-04T04:20:15.768Z,17.30
2022-09-04T04:22:48.589Z,17.38
2022-09-04T04:25:41.434Z,17.30
2022-09-04T04:28:27.967Z,17.42
2022-09-04T04:31:09.967Z,17.40
2022-09-04T04:33:48.373Z,17.42
2022-09-04T04:36:24.537Z,17.33
2022-09-04T04:39:10.257Z,17.29
2022-09-04T04:42:12.439Z,17.25
2022-09-04T04:45:27.159Z,17.19
2022-09-04T04:48:18.977Z,17.20
2022-09-04T04:50:59.337Z,17.20
2022-09-04T04:53:56.511Z,17.07
2022-09-04T04:56:46.016Z,17.03
2022-09-04T04:59:23.526Z,17.07
2022-09-04T05:01:59.323Z,17.17
2022-09-04T05:04:51.021Z,17.10
2022-09-04T05:07:34.379Z,16.97
2022-09-04T05:10:13.164Z,17.02
2022-09-04T05:12:52.343Z,16.93
2022-09-04T05:16:08.010Z,17.01
2022-09-04T05:18:50.262Z,17.02
2022-09-04T05:21:25.355Z,16.88
2022-09-04T05:23:59.635Z,16.93
2022-09-04T05:26:33.940Z,16.85
2022-09-04T05:29:20.779Z,16.76
2022-09-04T05:31:53.475Z,16.87
2022-09-04T05:34:29.994Z,16.91
2022-09-04T05:37:33.184Z,16.97
2022-09-04T05:40:35.305Z,16.87
2022-09-04T05:43:29.810Z,16.88
2022-09-04T05:46:07.097Z,17.02
2022-09-04T05:49:11.490Z,17.03
2022-09-04T05:51:53.404Z,16.94
2022-09-04T05:54:35.343Z,16.94
2022-09-04T05:57:15.147Z,17.00
2022-09-04T06:00:04.197Z,17.23
2022-09-04T06:03:08.621Z,17.25
2022-09-04T06:06:06.951Z,17.28
2022-09-04T06:08:51.786Z,17.39
2022-09-04T06:11:40.497Z,17.46
2022-09-04T06:14:17.480Z,17.53
2022-09-04T06:17:16.512Z,17.57
2022-09-04T06:19:56.914Z,17.57
2022-09-04T06:22:24.241Z,17.75
2022-09-04T06:25:05.176Z,17.79
2022-09-04T06:27:48.844Z,17.62
2022-09-04T06:30:16.701Z,17.63
2022-09-04T06:33:11.440Z,17.87
2022-09-04T06:36:02.894Z,18.00
2022-09-04T06:38:51.380Z,18.23
2022-09-04T06:41:40.933Z,18.33
2022-09-04T06:44:26.914Z,18.17
2022-09-04T06:47:15.238Z,18.00
2022-09-04T06:49:48.047Z,18.08
2022-09-04T06:52:23.804Z,18.19
2022-09-04T06:55:00.537Z,18.16
2022-09-04T06:57:56.163Z,18.14
2022-09-04T07:00:23.663Z,18.21
2022-09-04T07:03:29.078Z,17.97
2022-09-04T07:06:26.885Z,18.13
2022-09-04T07:09:09.719Z,18.19
2022-09-04T07:12:09.931Z,18.48
2022-09-04T07:14:49.663Z,18.53
2022-09-04T07:17:19.334Z,18.64
2022-09-04T07:20:06.279Z,18.59
2022-09-04T07:22:54.942Z,18.91
2022-09-04T07:25:40.687Z,19.27
2022-09-04T07:28:11.415Z,19.64
2022-09-04T07:30:54.363Z,19.90
2022-09-04T07:33:42.530Z,20.17
2022-09-04T07:36:33.072Z,20.51
2022-09-04T07:39:11.308Z,20.84
2022-09-04T07:41:46.972Z,21.19
2022-09-04T07:44:24.542Z,21.57
2022-09-04T07:47:18.227Z,22.04
2022-09-04T07:49:53.272Z,22.35
2022-09-04T07:52:39.555Z,22.76
2022-09-04T07:55:13.472Z,23.05
2022-09-04T07:58:07.956Z,23.32
2022-09-04T08:01:14.827Z,23.63
2022-09-04T08:03:54.497Z,23.84
2022-09-04T08:06:27.649Z,23.68
2022-09-04T08:08:57.477Z,23.55
2022-09-04T08:11:39.473Z,23.42
2022-09-04T08:14:23.949Z,23.09
2022-09-04T08:17:21.030Z,23.05
2022-09-04T08:20:04.003Z,22.69
2022-09-04T08:23:18.615Z,23.01
2022-09-04T08:26:15.610Z,22.93
2022-09-04T08:28:46.426Z,22.92
2022-09-04T08:31:29.372Z,23.08
2022-09-04T08:34:09.057Z,23.12
2022-09-04T08:37:02.044Z,23.72
2022-09-04T08:39:56.800Z,24.24
2022-09-04T08:43:04.175Z,24.64
2022-09-04T08:45:43.551Z,24.97
2022-09-04T08:48:13.380Z,24.90
2022-09-04T08:51:07.181Z,25.00
2022-09-04T08:53:54.620Z,25.04
2022-09-04T08:56:30.104Z,25.19
2022-09-04T08:59:25.260Z,25.68
2022-09-04T09:02:10.462Z,25.95
2022-09-04T09:04:48.769Z,25.98
2022-09-04T09:07:29.003Z,26.29
2022-09-04T09:10:19.887Z,26.64
2022-09-04T09:13:24.440Z,26.81
2022-09-04T09:16:07.937Z,26.64
2022-09-04T09:18:45.235Z,27.16
2022-09-04T09:21:33.721Z,27.40
2022-09-04T09:24:06.399Z,27.58
2022-09-04T09:27:07.672Z,27.32
2022-09-04T09:30:08.369Z,27.67
2022-09-04T09:32:57.184Z,27.90
2022-09-04T09:35:55.817Z,27.63
2022-09-04T09:38:37.630Z,27.90
2022-09-04T09:41:24.569Z,28.13
2022-09-04T09:44:20.639Z,28.29
2022-09-04T09:47:02.602Z,28.26
2022-09-04T09:49:53.814Z,28.67
2022-09-04T09:52:39.204Z,28.90
2022-09-04T09:55:22.159Z,29.04
2022-09-04T09:58:23.195Z,29.04
2022-09-04T10:01:01.178Z,29.50
2022-09-04T10:03:39.355Z,29.47
2022-09-04T10:06:28.253Z,29.23
2022-09-04T10:09:07.103Z,29.52
2022-09-04T10:11:54.744Z,29.22
2022-09-04T10:14:33.788Z,29.31
2022-09-04T10:17:39.676Z,29.73
2022-09-04T10:20:42.236Z,29.96
2022-09-04T10:23:30.781Z,29.73
2022-09-04T10:26:15.866Z,29.28
2022-09-04T10:29:05.401Z,28.90
2022-09-04T10:31:48.069Z,29.14
2022-09-04T10:34:24.344Z,29.55
2022-09-04T10:37:09.530Z,29.65
2022-09-04T10:40:25.076Z,29.88
2022-09-04T10:43:26.624Z,30.19
2022-09-04T10:46:13.905Z,29.89
2022-09-04T10:48:54.160Z,30.33
2022-09-04T10:51:27.824Z,30.77
2022-09-04T10:54:32.111Z,31.15
2022-09-04T10:57:14.044Z,31.48
2022-09-04T10:59:58.386Z,31.74
2022-09-04T11:02:45.452Z,31.94
2022-09-04T11:05:41.511Z,32.31
2022-09-04T11:08:36.629Z,32.62
2022-09-04T11:11:33.987Z,32.77
2022-09-04T11:14:08.499Z,32.84
2022-09-04T11:16:57.109Z,32.86
2022-09-04T11:19:46.010Z,33.01
2022-09-04T11:22:43.369Z,33.21
2022-09-04T11:26:06.110Z,33.27
2022-09-04T11:29:00.419Z,33.61
2022-09-04T11:32:00.665Z,33.87
2022-09-04T11:34:45.905Z,33.72
2022-09-04T11:37:38.099Z,32.85
2022-09-04T11:40:11.977Z,31.82
2022-09-04T11:42:57.420Z,31.51
2022-09-04T11:45:52.150Z,31.02
2022-09-04T11:48:31.233Z,30.91
2022-09-04T11:51:16.643Z,31.12
2022-09-04T11:54:00.518Z,31.10
2022-09-04T11:56:40.672Z,31.02
2022-09-04T12:00:07.182Z,30.75
2022-09-04T12:03:31.082Z,31.08
2022-09-04T12:06:01.892Z,31.81
2022-09-04T12:08:46.621Z,32.90
2022-09-04T12:11:59.397Z,34.01
2022-09-04T12:14:49.852Z,34.41
2022-09-04T12:17:47.637Z,35.37
2022-09-04T12:20:51.967Z,35.97
2022-09-04T12:23:21.864Z,36.12
2022-09-04T12:26:18.054Z,35.84
2022-09-04T12:29:14.374Z,36.08
2022-09-04T12:32:02.963Z,35.85
2022-09-04T12:34:55.491Z,36.14
2022-09-04T12:37:47.386Z,36.51
2022-09-04T12:40:34.672Z,36.26
2022-09-04T12:43:13.710Z,36.31
2022-09-04T12:45:51.116Z,36.09
2022-09-04T12:48:36.313Z,35.59
2022-09-04T12:51:21.397Z,34.72
2022-09-04T12:54:12.648Z,33.54
2022-09-04T12:57:08.346Z,33.27
2022-09-04T12:59:45.725Z,33.02
2022-09-04T13:02:39.789Z,32.47
2022-09-04T13:05:52.944Z,32.38
2022-09-04T13:08:26.466Z,32.45
2022-09-04T13:11:05.437Z,32.81
2022-09-04T13:13:47.240Z,33.24
2022-09-04T13:16:20.566Z,33.78
2022-09-04T13:19:00.369Z,34.60
2022-09-04T13:21:43.491Z,35.01
2022-09-04T13:24:19.726Z,35.44
2022-09-04T13:27:10.075Z,35.15
2022-09-04T13:30:20.912Z,35.20
2022-09-04T13:32:51.491Z,34.87
2022-09-04T13:35:41.360Z,34.61
2022-09-04T13:38:15.543Z,33.76
2022-09-04T13:41:00.304Z,32.70
2022-09-04T13:43:32.987Z,31.97
2022-09-04T13:46:05.162Z,31.44
2022-09-04T13:48:37.736Z,30.89
2022-09-04T13:51:13.503Z,30.61
2022-09-04T13:54:05.060Z,30.20
2022-09-04T13:56:49.752Z,29.73
2022-09-04T13:59:17.791Z,29.56
2022-09-04T14:01:49.456Z,29.37
2022-09-04T14:04:26.781Z,29.11
2022-09-04T14:07:07.138Z,28.86
2022-09-04T14:09:43.779Z,28.75
2022-09-04T14:12:19.137Z,28.49
2022-09-04T14:15:05.809Z,28.37
2022-09-04T14:17:50.473Z,28.16
2022-09-04T14:20:28.058Z,28.01
2022-09-04T14:23:24.959Z,28.07
2022-09-04T14:25:56.583Z,28.13
2022-09-04T14:28:49.991Z,27.86
2022-09-04T14:31:40.582Z,27.60
2022-09-04T14:34:50.260Z,27.53
2022-09-04T14:37:29.145Z,27.56
2022-09-04T14:40:00.062Z,27.04
2022-09-04T14:42:42.402Z,26.89
2022-09-04T14:45:53.906Z,27.12
2022-09-04T14:48:24.512Z,27.12
2022-09-04T14:50:53.952Z,27.01
2022-09-04T14:53:28.398Z,26.92
2022-09-04T14:56:07.536Z,26.77
2022-09-04T14:58:37.898Z,26.75
2022-09-04T15:01:09.224Z,26.88
2022-09-04T15:03:44.428Z,26.49
2022-09-04T15:06:31.369Z,26.47
2022-09-04T15:09:36.084Z,26.36
2022-09-04T15:12:28.941Z,26.31
2022-09-04T15:15:29.415Z,26.27
2022-09-04T15:18:16.119Z,26.15
2022-09-04T15:21:08.367Z,26.21
2022-09-04T15:23:47.714Z,26.09
2022-09-04T15:26:24.583Z,25.94
2022-09-04T15:28:59.362Z,25.93
2022-09-04T15:31:32.624Z,26.04
2022-09-04T15:34:02.968Z,25.91
2022-09-04T15:36:30.786Z,25.94
2022-09-04T15:39:01.631Z,26.02
2022-09-04T15:41:37.467Z,25.64
2022-09-04T15:44:13.267Z,25.69
2022-09-04T15:46:46.208Z,25.73
2022-09-04T15:49:37.907Z,25.85
2022-09-04T15:52:21.586Z,25.76
2022-09-04T15:55:00.358Z,25.68
2022-09-04T15:57:49.234Z,25.65
2022-09-04T16:00:22.787Z,25.76
2022-09-04T16:02:59.187Z,25.77
2022-09-04T16:05:45.065Z,25.56
2022-09-04T16:08:22.136Z,25.57
2022-09-04T16:11:23.778Z,25.36
2022-09-04T16:13:50.643Z,25.40
2022-09-04T16:16:24.511Z,25.48
2022-09-04T16:19:00.269Z,25.49
2022-09-04T16:21:49.385Z,25.47
2022-09-04T16:24:35.746Z,25.31
2022-09-04T16:27:07.901Z,25.29
2022-09-04T16:29:37.493Z,25.20
2022-09-04T16:32:09.798Z,25.31
2022-09-04T16:34:59.749Z,25.08
2022-09-04T16:37:37.594Z,25.04
2022-09-04T16:40:42.089Z,25.10
2022-09-04T16:43:23.945Z,25.04
2022-09-04T16:46:27.704Z,25.15
2022-09-04T16:49:19.724Z,25.24
2022-09-04T16:52:28.227Z,24.99
2022-09-04T16:54:56.685Z,25.01
2022-09-04T16:58:14.193Z,24.86
2022-09-04T17:00:50.623Z,24.75
2022-09-04T17:03:41.112Z,24.78
2022-09-04T17:06:18.884Z,24.86
2022-09-04T17:09:00.086Z,24.63
2022-09-04T17:11:26.879Z,24.66
2022-09-04T17:14:12.846Z,24.63
2022-09-04T17:16:57.371Z,24.39
2022-09-04T17:19:25.146Z,24.45
2022-09-04T17:28:59.270Z,24.33
2022-09-04T17:29:17.726Z,24.19
2022-09-04T17:29:22.446Z,24.15
2022-09-04T17:31:45.489Z,24.09
2022-09-04T17:40:38.299Z,23.99
2022-09-04T17:40:42.889Z,24.08
2022-09-04T17:40:51.618Z,23.88
2022-09-04T17:43:37.369Z,23.80
2022-09-04T17:46:24.701Z,23.70
2022-09-04T17:48:51.597Z,23.58
2022-09-04T17:51:28.584Z,23.45
2022-09-04T17:54:00.432Z,23.40
2022-09-04T17:56:48.899Z,23.33
2022-09-04T17:59:22.916Z,23.22
2022-09-04T18:02:17.784Z,23.15
2022-09-04T18:04:57.391Z,23.00
2022-09-04T18:08:07.630Z,22.88
2022-09-04T18:10:31.465Z,22.74
2022-09-04T18:13:27.150Z,22.62
2022-09-04T18:16:33.371Z,22.50
2022-09-04T18:19:15.075Z,22.37
2022-09-04T18:21:53.954Z,22.28
2022-09-04T18:24:48.829Z,22.16
2022-09-04T18:27:25.196Z,22.07
2022-09-04T18:32:47.203Z,21.99
2022-09-04T18:37:11.620Z,21.85
2022-09-04T18:37:19.203Z,21.75
2022-09-04T18:39:24.526Z,21.61
2022-09-04T18:50:20.172Z,21.56
2022-09-04T18:50:28.033Z,21.45
2022-09-04T18:50:50.179Z,21.36
2022-09-04T18:51:12.628Z,21.29
2022-09-04T18:53:27.538Z,21.20
2022-09-04T18:56:05.805Z,21.12
2022-09-04T18:58:57.580Z,21.06
2022-09-04T19:01:27.767Z,20.99
2022-09-04T19:04:19.495Z,20.94
2022-09-04T19:06:55.782Z,20.86
2022-09-04T19:10:05.921Z,20.82
2022-09-04T19:12:54.001Z,20.73
2022-09-04T19:15:23.885Z,20.64
2022-09-04T19:18:14.791Z,20.58
2022-09-04T19:20:48.335Z,20.55
2022-09-04T19:23:49.115Z,20.50
2022-09-04T19:26:25.645Z,20.44
2022-09-04T19:29:08.242Z,20.37
2022-09-04T19:31:42.588Z,20.33
2022-09-04T19:34:25.611Z,20.30
2022-09-04T19:37:19.081Z,20.27
2022-09-04T19:46:05.352Z,20.22
2022-09-04T19:46:06.077Z,20.23
2022-09-04T19:46:29.358Z,20.14
2022-09-04T19:50:57.094Z,20.14
2022-09-04T19:53:31.987Z,20.11
2022-09-04T19:55:24.564Z,20.07
2022-09-04T19:57:53.392Z,20.05
2022-09-04T20:00:38.307Z,19.99
2022-09-04T20:03:29.277Z,20.00
2022-09-04T20:06:21.463Z,19.98
2022-09-04T20:08:54.766Z,19.95
2022-09-04T20:11:35.351Z,20.02
2022-09-04T20:14:14.406Z,20.05
2022-09-04T20:17:08.006Z,20.03
2022-09-04T20:19:41.811Z,20.09
2022-09-04T20:22:27.399Z,20.08
2022-09-04T20:25:19.164Z,20.15
2022-09-04T20:28:01.909Z,20.17
2022-09-04T20:30:30.036Z,20.19
2022-09-04T20:33:11.762Z,20.21
2022-09-04T20:35:43.360Z,20.07
2022-09-04T20:38:30.587Z,20.08
2022-09-04T20:41:10.707Z,20.12
2022-09-04T20:43:51.244Z,20.21
2022-09-04T20:48:51.097Z,20.22
2022-09-04T20:52:58.851Z,20.24
2022-09-04T20:53:06.043Z,20.19
2022-09-04T20:56:08.182Z,20.21
2022-09-04T21:02:53.283Z,20.16
2022-09-04T21:03:07.475Z,20.10
2022-09-04T21:05:22.514Z,20.06
2022-09-04T21:08:00.597Z,20.02
2022-09-04T21:10:43.178Z,19.96
2022-09-04T21:13:17.091Z,19.99
2022-09-04T21:15:47.031Z,19.86
2022-09-04T21:18:38.716Z,19.82
2022-09-04T21:21:11.653Z,19.84
2022-09-04T21:23:56.463Z,19.82
2022-09-04T21:26:52.113Z,19.80
2022-09-04T21:29:34.524Z,19.78
2022-09-04T21:32:08.134Z,19.70
2022-09-04T21:34:57.676Z,19.70
2022-09-04T21:37:40.035Z,19.67
2022-09-04T21:40:49.782Z,19.62
2022-09-04T21:43:37.893Z,19.63
2022-09-04T21:46:31.236Z,19.60
2022-09-04T21:49:31.670Z,19.61
2022-09-04T21:52:13.681Z,19.58
2022-09-04T21:56:46.183Z,19.51
2022-09-04T22:02:29.225Z,19.46
2022-09-04T22:02:43.253Z,19.46
2022-09-04T22:04:29.006Z,19.38
2022-09-04T22:11:10.836Z,19.33
2022-09-04T22:13:42.101Z,19.38
2022-09-04T22:13:42.850Z,19.37
2022-09-04T22:16:37.261Z,19.32
2022-09-04T22:19:36.437Z,19.25
2022-09-04T22:22:37.035Z,19.25
2022-09-04T22:25:27.998Z,19.23
2022-09-04T22:28:08.805Z,19.22
2022-09-04T22:30:48.849Z,19.15
2022-09-04T22:34:14.261Z,19.12
2022-09-04T22:36:52.940Z,19.11
2022-09-04T22:39:49.624Z,18.98
2022-09-04T22:42:47.428Z,18.97
2022-09-04T22:45:43.061Z,18.97
2022-09-04T22:48:25.128Z,18.89
2022-09-04T22:51:08.071Z,18.91
2022-09-04T22:53:40.799Z,18.92
2022-09-04T22:56:24.677Z,18.90
2022-09-04T22:59:26.033Z,18.88
2022-09-04T23:02:14.179Z,18.85
2022-09-04T23:04:53.457Z,18.83
2022-09-04T23:13:44.006Z,18.80
2022-09-04T23:13:46.536Z,18.87
2022-09-04T23:14:18.184Z,18.89
2022-09-04T23:17:16.099Z,18.93
2022-09-04T23:26:33.254Z,18.84
2022-09-04T23:26:49.607Z,18.90
2022-09-04T23:26:58.039Z,18.91
2022-09-04T23:29:49.201Z,18.92
2022-09-04T23:32:39.689Z,19.01
2022-09-04T23:35:14.351Z,19.09
2022-09-04T23:38:11.119Z,19.18
2022-09-04T23:40:53.804Z,19.19
2022-09-04T23:43:23.599Z,19.16
2022-09-04T23:46:01.848Z,19.18
2022-09-04T23:48:49.220Z,19.12
2022-09-04T23:51:27.925Z,19.29
2022-09-04T23:54:34.619Z,19.30
2022-09-04T23:57:28.312Z,19.30
2022-09-04T23:59:58.273Z,19.27
